Time;durP1;ratioP1;P1;durP2;ratioP2;P2;SDS_P1;SDS_P2;PMS_P1;PMS_P2;Temp;Humidity;BMP_temperature;BMP_pressure;BME280_temperature;BME280_humidity;BME280_pressure;Samples;Min_cycle;Max_cycle;Signal;HPM_P1;HPM_P2
2021/09/15 00:02:25;;;;;;;23.65;21.65;;;20.80;99.90;;;;;;5054117;28;20205;-65
2021/09/15 00:04:50;;;;;;;23.07;20.13;;;20.80;99.90;;;;;;5060446;28;20236;-65
2021/09/15 00:07:16;;;;;;;20.07;18.27;;;20.70;99.90;;;;;;5073889;28;20223;-65
2021/09/15 00:09:41;;;;;;;20.57;18.53;;;20.70;99.90;;;;;;5068165;28;20198;-65
2021/09/15 00:12:07;;;;;;;21.30;18.43;;;20.70;99.90;;;;;;5053720;28;20174;-65
2021/09/15 00:14:33;;;;;;;20.60;18.63;;;20.60;99.90;;;;;;5056971;28;20209;-65
2021/09/15 00:16:58;;;;;;;21.30;19.03;;;20.60;99.90;;;;;;5073558;28;20174;-65
2021/09/15 00:19:24;;;;;;;21.55;18.90;;;20.50;99.90;;;;;;5071376;28;20244;-65
2021/09/15 00:21:49;;;;;;;24.83;20.83;;;20.60;99.90;;;;;;5053641;28;20537;-66
2021/09/15 00:24:15;;;;;;;20.47;18.67;;;20.50;99.90;;;;;;5053550;28;20171;-65
2021/09/15 00:26:41;;;;;;;21.77;19.63;;;20.50;99.90;;;;;;5072065;28;20170;-66
2021/09/15 00:29:06;;;;;;;26.60;20.13;;;20.50;99.90;;;;;;5073339;28;20741;-66
2021/09/15 00:31:32;;;;;;;21.23;19.00;;;20.50;99.90;;;;;;5054700;28;20202;-66
2021/09/15 00:33:57;;;;;;;21.27;19.27;;;20.50;99.90;;;;;;5067492;28;20189;-66
2021/09/15 00:36:23;;;;;;;21.20;19.17;;;20.60;99.90;;;;;;5073355;28;20181;-66
2021/09/15 00:38:49;;;;;;;21.20;19.10;;;20.60;99.90;;;;;;5060374;28;20312;-65
2021/09/15 00:41:14;;;;;;;21.90;19.73;;;20.60;99.90;;;;;;5052713;28;20257;-65
2021/09/15 00:44:19;;;;;;;21.83;19.73;;;20.50;99.90;;;;;;5063954;28;20178;-65
2021/09/15 00:46:45;;;;;;;21.30;19.60;;;20.50;99.90;;;;;;5011211;28;20183;-65
2021/09/15 00:49:10;;;;;;;22.38;20.20;;;20.60;99.90;;;;;;4996498;28;20189;-65
2021/09/15 00:51:40;;;;;;;24.10;21.80;;;20.60;99.90;;;;;;5020036;28;20205;-65
2021/09/15 00:54:07;;;;;;;22.30;20.30;;;20.50;99.90;;;;;;5066502;28;20189;-65
2021/09/15 00:56:34;;;;;;;22.55;20.35;;;20.60;99.90;;;;;;5073046;28;20591;-65
2021/09/15 00:59:00;;;;;;;21.98;19.95;;;20.50;99.90;;;;;;5060643;28;20232;-65
2021/09/15 01:01:25;;;;;;;21.80;19.87;;;20.60;99.90;;;;;;5060435;28;20685;-66
2021/09/15 01:03:51;;;;;;;21.50;19.33;;;20.60;99.90;;;;;;5072835;28;20166;-66
2021/09/15 01:06:17;;;;;;;22.30;19.97;;;20.60;99.90;;;;;;5066010;28;20219;-65
2021/09/15 01:08:43;;;;;;;23.33;21.13;;;20.60;99.90;;;;;;5052885;28;20173;-65
2021/09/15 01:11:09;;;;;;;22.00;19.80;;;20.60;99.90;;;;;;5056658;28;20679;-66
2021/09/15 01:13:36;;;;;;;22.02;20.05;;;20.60;99.90;;;;;;5072940;28;20178;-65
2021/09/15 01:16:02;;;;;;;22.53;20.73;;;20.70;99.90;;;;;;5053444;28;20175;-66
2021/09/15 01:18:27;;;;;;;23.77;21.60;;;20.70;99.90;;;;;;5052612;28;20186;-66
2021/09/15 01:20:57;;;;;;;22.37;20.57;;;20.70;99.90;;;;;;5068834;28;20206;-66
2021/09/15 01:23:23;;;;;;;22.60;20.70;;;20.70;99.90;;;;;;5072628;28;20519;-66
2021/09/15 01:25:49;;;;;;;22.50;20.40;;;20.60;99.90;;;;;;5055244;28;20182;-66
2021/09/15 01:28:15;;;;;;;22.73;20.47;;;20.50;99.90;;;;;;5052603;28;20185;-66
2021/09/15 01:30:41;;;;;;;22.23;20.17;;;20.50;99.90;;;;;;5068722;28;20206;-66
2021/09/15 01:33:12;;;;;;;24.17;21.90;;;20.50;99.90;;;;;;5072029;28;20189;-66
2021/09/15 01:35:38;;;;;;;23.90;21.70;;;20.50;99.90;;;;;;5056129;28;20668;-66
2021/09/15 01:38:04;;;;;;;24.20;22.00;;;20.50;99.90;;;;;;5058813;28;20190;-66
2021/09/15 01:40:30;;;;;;;25.27;23.17;;;20.50;99.90;;;;;;5071983;28;20275;-66
2021/09/15 01:42:55;;;;;;;23.37;21.20;;;20.40;99.90;;;;;;5066481;28;20240;-66
2021/09/15 01:45:21;;;;;;;25.10;22.73;;;20.40;99.90;;;;;;5052227;28;20627;-65
2021/09/15 01:47:46;;;;;;;24.30;21.97;;;20.30;99.90;;;;;;5055331;28;20192;-65
2021/09/15 01:50:12;;;;;;;26.53;23.77;;;20.30;99.90;;;;;;5071543;28;20206;-65
2021/09/15 01:52:38;;;;;;;24.60;21.83;;;20.30;99.90;;;;;;5070144;28;20174;-65
2021/09/15 01:55:05;;;;;;;25.57;23.17;;;20.30;99.90;;;;;;5051932;28;20182;-65
2021/09/15 01:57:31;;;;;;;24.93;22.73;;;20.30;99.90;;;;;;5056602;28;20315;-65
2021/09/15 01:59:57;;;;;;;25.93;23.40;;;20.30;99.90;;;;;;5051183;28;20671;-65
2021/09/15 02:02:23;;;;;;;26.13;23.63;;;20.20;99.90;;;;;;5054034;28;20178;-65
2021/09/15 02:04:49;;;;;;;25.73;23.40;;;20.20;99.90;;;;;;5068304;28;20182;-66
2021/09/15 02:07:15;;;;;;;25.00;22.70;;;20.10;99.90;;;;;;5051881;28;20544;-65
2021/09/15 02:09:40;;;;;;;26.27;23.97;;;20.10;99.90;;;;;;5051560;28;20289;-65
2021/09/15 02:12:06;;;;;;;26.37;23.73;;;20.00;99.90;;;;;;5070226;28;20185;-66
2021/09/15 02:14:31;;;;;;;27.43;24.83;;;20.10;99.90;;;;;;5072094;28;20185;-67
2021/09/15 02:16:57;;;;;;;27.37;24.80;;;20.00;99.90;;;;;;5053267;28;20187;-70
2021/09/15 02:19:23;;;;;;;29.20;26.33;;;20.00;99.90;;;;;;5052290;28;20544;-67
2021/09/15 02:21:49;;;;;;;34.20;27.00;;;20.00;99.90;;;;;;5069935;28;20182;-68
2021/09/15 02:24:16;;;;;;;31.20;26.90;;;19.90;99.90;;;;;;5072498;28;20170;-69
2021/09/15 02:26:42;;;;;;;29.30;24.47;;;19.90;99.90;;;;;;5056648;28;20263;-70
2021/09/15 02:29:07;;;;;;;26.30;23.83;;;19.90;99.90;;;;;;5052601;28;20205;-70
2021/09/15 02:31:33;;;;;;;26.80;24.20;;;19.80;99.90;;;;;;5048806;28;20201;-68
2021/09/15 02:33:59;;;;;;;25.73;23.27;;;19.80;99.90;;;;;;5072758;28;20174;-70
2021/09/15 02:36:25;;;;;;;28.37;25.87;;;19.70;99.90;;;;;;5058644;28;20183;-68
2021/09/15 02:38:51;;;;;;;28.57;25.57;;;19.60;99.90;;;;;;5052638;28;20175;-69
2021/09/15 02:41:17;;;;;;;29.33;26.60;;;19.60;99.90;;;;;;5062281;28;20225;-69
2021/09/15 02:43:43;;;;;;;34.63;30.87;;;19.60;99.90;;;;;;5072366;28;20170;-71
2021/09/15 02:46:08;;;;;;;34.53;30.10;;;19.60;99.90;;;;;;5062907;28;20182;-69
2021/09/15 02:48:34;;;;;;;33.50;30.50;;;19.60;99.90;;;;;;5052348;28;20677;-71
2021/09/15 02:51:00;;;;;;;33.63;30.00;;;19.60;99.90;;;;;;5057858;28;20210;-68
2021/09/15 02:53:25;;;;;;;34.63;30.63;;;19.60;99.90;;;;;;5067596;28;20179;-67
2021/09/15 02:55:51;;;;;;;32.43;29.40;;;19.50;99.90;;;;;;5052836;28;20206;-67
2021/09/15 02:58:16;;;;;;;30.13;27.13;;;19.50;99.90;;;;;;5055764;28;20197;-68
2021/09/15 03:00:42;;;;;;;31.53;28.53;;;19.50;99.90;;;;;;5074047;28;20217;-69
2021/09/15 03:03:08;;;;;;;34.60;31.17;;;19.40;99.90;;;;;;5072740;28;20174;-66
2021/09/15 03:05:33;;;;;;;32.53;29.47;;;19.40;99.90;;;;;;5052849;28;20174;-69
2021/09/15 03:08:00;;;;;;;34.33;31.07;;;19.40;99.90;;;;;;5052710;28;20640;-70
2021/09/15 03:10:26;;;;;;;33.07;29.63;;;19.40;99.90;;;;;;5069646;28;20262;-70
2021/09/15 03:12:51;;;;;;;32.23;29.07;;;19.40;99.90;;;;;;5053120;28;20683;-70
2021/09/15 03:15:17;;;;;;;31.27;27.63;;;19.40;99.90;;;;;;5069287;28;20265;-70
2021/09/15 03:17:43;;;;;;;33.90;30.87;;;19.40;99.90;;;;;;5072894;28;20311;-71
2021/09/15 03:20:09;;;;;;;33.30;30.27;;;19.50;99.90;;;;;;5056753;28;20241;-71
2021/09/15 03:22:34;;;;;;;32.90;29.80;;;19.50;99.90;;;;;;5066823;28;20182;-68
2021/09/15 03:25:00;;;;;;;35.67;31.43;;;19.50;99.90;;;;;;5076499;28;20166;-69
2021/09/15 03:27:26;;;;;;;37.53;33.77;;;19.50;99.90;;;;;;5066883;28;20515;-67
2021/09/15 03:29:51;;;;;;;34.27;30.77;;;19.50;99.90;;;;;;5056605;28;20615;-71
2021/09/15 03:32:17;;;;;;;33.53;30.23;;;19.50;99.90;;;;;;5056185;28;20186;-70
2021/09/15 03:34:43;;;;;;;40.87;36.67;;;19.50;99.90;;;;;;5059892;28;20188;-69
2021/09/15 03:37:08;;;;;;;35.77;32.50;;;19.50;99.90;;;;;;5075808;28;20526;-71
2021/09/15 03:39:34;;;;;;;38.30;30.63;;;19.50;99.90;;;;;;5073104;28;20205;-70
2021/09/15 03:41:59;;;;;;;34.07;30.57;;;19.50;99.90;;;;;;5055324;28;20170;-70
2021/09/15 03:44:27;;;;;;;35.30;32.00;;;19.60;99.90;;;;;;5056078;28;20172;-70
2021/09/15 03:46:53;;;;;;;34.00;30.83;;;19.50;99.90;;;;;;5074086;28;20189;-70
2021/09/15 03:49:19;;;;;;;35.57;31.70;;;19.50;99.90;;;;;;5074273;28;20175;-64
2021/09/15 03:51:44;;;;;;;36.57;32.77;;;19.50;99.90;;;;;;5054846;28;20182;-64
2021/09/15 03:54:10;;;;;;;35.77;32.30;;;19.40;99.90;;;;;;5053978;28;20209;-64
2021/09/15 03:56:36;;;;;;;37.13;33.60;;;19.40;99.90;;;;;;5071340;28;20631;-64
2021/09/15 03:59:01;;;;;;;37.43;33.83;;;19.50;99.90;;;;;;5073148;28;20174;-64
2021/09/15 04:01:27;;;;;;;41.63;38.00;;;19.40;99.90;;;;;;5057754;28;20203;-64
2021/09/15 04:03:52;;;;;;;39.67;35.87;;;19.40;99.90;;;;;;5057544;28;20671;-64
2021/09/15 04:06:18;;;;;;;36.50;33.13;;;19.40;99.90;;;;;;5073850;28;20173;-64
2021/09/15 04:08:43;;;;;;;39.83;36.20;;;19.40;99.90;;;;;;5062398;28;20558;-64
2021/09/15 04:11:09;;;;;;;36.00;32.60;;;19.40;99.90;;;;;;5053217;28;20194;-66
2021/09/15 04:13:35;;;;;;;42.63;38.43;;;19.30;99.90;;;;;;5063160;28;20182;-66
2021/09/15 04:16:00;;;;;;;42.73;38.50;;;19.40;99.90;;;;;;5069332;28;20183;-66
2021/09/15 04:18:26;;;;;;;41.90;37.43;;;19.40;99.90;;;;;;5053824;28;20177;-66
2021/09/15 04:20:51;;;;;;;51.70;46.70;;;19.40;99.90;;;;;;5055262;28;20706;-65
2021/09/15 04:23:25;;;;;;;58.97;53.90;;;19.30;99.90;;;;;;5073460;28;20186;-65
2021/09/15 04:31:23;;;;;;;50.77;45.53;;;19.30;99.90;;;;;;5057915;28;20701;-66
2021/09/15 04:33:49;;;;;;;54.57;49.33;;;19.30;99.90;;;;;;5063329;28;20664;-65
2021/09/15 04:36:15;;;;;;;48.10;43.63;;;19.20;99.90;;;;;;5068310;28;20522;-65
2021/09/15 04:38:41;;;;;;;56.00;50.83;;;19.20;99.90;;;;;;5073508;28;20173;-66
2021/09/15 04:41:07;;;;;;;72.70;65.33;;;19.20;99.90;;;;;;5059005;28;20203;-66
2021/09/15 04:43:33;;;;;;;58.27;52.70;;;19.30;99.90;;;;;;5053210;28;20171;-66
2021/09/15 04:45:59;;;;;;;55.83;50.67;;;19.30;99.90;;;;;;5064986;28;20257;-66
2021/09/15 04:48:24;;;;;;;45.67;40.77;;;19.30;99.90;;;;;;5073116;28;20224;-66
2021/09/15 04:50:50;;;;;;;44.20;39.33;;;19.30;99.90;;;;;;5062658;28;20198;-66
2021/09/15 04:53:16;;;;;;;44.30;40.13;;;19.30;99.90;;;;;;5052803;28;20188;-66
2021/09/15 04:55:41;;;;;;;46.20;40.80;;;19.20;99.90;;;;;;5061430;28;20179;-66
2021/09/15 04:58:07;;;;;;;44.60;38.53;;;19.20;99.90;;;;;;5072816;28;20260;-66
2021/09/15 05:00:33;;;;;;;54.77;49.80;;;19.20;99.90;;;;;;5099956;22;20342;-66
2021/09/15 05:02:59;;;;;;;55.10;49.97;;;19.20;99.90;;;;;;5014773;28;20649;-67
2021/09/15 05:05:25;;;;;;;56.93;51.50;;;19.20;99.90;;;;;;5017637;28;20211;-65
2021/09/15 05:07:51;;;;;;;64.67;56.53;;;19.10;99.90;;;;;;5013048;28;20168;-64
2021/09/15 05:10:16;;;;;;;49.83;42.27;;;19.10;99.90;;;;;;4993394;28;20564;-65
2021/09/15 05:12:42;;;;;;;49.13;44.27;;;19.10;99.90;;;;;;5011120;28;20665;-65
2021/09/15 05:15:09;;;;;;;42.70;38.30;;;19.00;99.90;;;;;;5032603;28;20175;-64
2021/09/15 05:17:35;;;;;;;48.00;36.43;;;19.10;99.90;;;;;;5024673;28;20179;-65
2021/09/15 05:20:01;;;;;;;51.47;46.00;;;19.00;99.90;;;;;;5012334;28;20204;-65
2021/09/15 05:22:27;;;;;;;107.23;99.73;;;19.10;99.90;;;;;;5018844;28;20202;-64
2021/09/15 05:24:53;;;;;;;39.90;35.67;;;19.10;99.90;;;;;;5032560;28;20167;-65
2021/09/15 05:27:19;;;;;;;90.67;84.07;;;19.00;99.90;;;;;;5027919;28;20616;-65
2021/09/15 05:29:45;;;;;;;107.47;100.37;;;19.00;99.90;;;;;;5012422;28;20176;-64
2021/09/15 05:32:12;;;;;;;44.77;36.60;;;19.00;99.90;;;;;;5014798;28;20191;-65
2021/09/15 05:34:38;;;;;;;51.10;43.43;;;19.10;99.90;;;;;;5025686;28;20176;-65
2021/09/15 05:37:04;;;;;;;40.83;36.70;;;19.10;99.90;;;;;;5012999;28;20195;-65
2021/09/15 05:39:29;;;;;;;66.53;61.13;;;19.10;99.90;;;;;;5026296;28;20176;-65
2021/09/15 05:41:55;;;;;;;94.33;87.87;;;19.10;99.90;;;;;;5012168;28;20190;-64
2021/09/15 05:44:20;;;;;;;67.80;62.47;;;19.10;99.90;;;;;;5029974;28;20179;-65
2021/09/15 05:46:46;;;;;;;115.13;108.47;;;19.10;99.90;;;;;;5023503;28;20625;-65
2021/09/15 05:49:12;;;;;;;123.37;115.67;;;19.10;99.90;;;;;;5015842;28;20212;-65
2021/09/15 05:51:37;;;;;;;59.23;54.40;;;19.10;99.90;;;;;;5011942;28;20196;-64
2021/09/15 05:54:04;;;;;;;36.50;32.70;;;19.10;99.90;;;;;;5012046;28;20176;-64
2021/09/15 05:56:30;;;;;;;31.90;28.50;;;19.00;99.90;;;;;;5011673;28;20165;-64
2021/09/15 05:58:56;;;;;;;30.10;27.03;;;19.10;99.90;;;;;;5028849;28;20179;-64
2021/09/15 06:01:21;;;;;;;33.07;29.83;;;19.10;99.90;;;;;;5031023;28;20214;-64
2021/09/15 06:03:47;;;;;;;78.50;73.53;;;19.10;99.90;;;;;;5030274;28;20211;-64
2021/09/15 06:06:13;;;;;;;39.23;35.33;;;19.10;99.90;;;;;;5031667;28;20175;-64
2021/09/15 06:08:38;;;;;;;32.13;27.23;;;19.20;99.90;;;;;;5015622;28;20187;-65
2021/09/15 06:11:04;;;;;;;41.67;38.20;;;19.20;99.90;;;;;;5015157;28;20279;-65
2021/09/15 06:13:30;;;;;;;29.70;26.53;;;19.20;99.90;;;;;;5011826;28;20184;-65
2021/09/15 06:15:55;;;;;;;29.93;26.47;;;19.30;99.90;;;;;;5011762;28;20222;-64
2021/09/15 06:18:21;;;;;;;29.67;24.83;;;19.30;99.90;;;;;;5011787;28;20168;-65
2021/09/15 06:20:46;;;;;;;32.70;29.93;;;19.40;99.90;;;;;;5011591;28;20755;-65
2021/09/15 06:23:12;;;;;;;33.33;30.43;;;19.40;99.90;;;;;;5017156;28;21310;-64
2021/09/15 06:25:41;;;;;;;27.17;24.07;;;19.40;99.90;;;;;;5013012;28;20226;-66
2021/09/15 06:28:06;;;;;;;30.97;28.30;;;19.40;99.90;;;;;;5020898;28;20195;-66
2021/09/15 06:30:34;;;;;;;25.63;23.33;;;19.50;99.90;;;;;;5031334;28;20672;-66
2021/09/15 06:33:00;;;;;;;25.50;23.13;;;19.50;99.90;;;;;;5019468;28;20262;-66
2021/09/15 06:35:26;;;;;;;102.67;97.53;;;19.50;99.90;;;;;;5011764;28;20242;-66
2021/09/15 06:37:51;;;;;;;27.33;24.43;;;19.60;99.90;;;;;;5021806;28;20175;-65
2021/09/15 06:40:17;;;;;;;24.27;21.97;;;19.60;99.90;;;;;;5031044;28;20210;-64
2021/09/15 06:42:42;;;;;;;79.03;74.43;;;19.60;99.90;;;;;;5022976;28;20172;-64
2021/09/15 06:45:08;;;;;;;35.63;32.77;;;19.50;99.90;;;;;;5011507;28;20544;-65
2021/09/15 06:47:44;;;;;;;35.43;32.60;;;19.60;99.90;;;;;;5018043;28;20225;-64
2021/09/15 06:50:12;;;;;;;87.47;82.50;;;19.60;99.90;;;;;;5029770;28;20191;-65
2021/09/15 06:52:38;;;;;;;99.43;94.10;;;19.60;99.90;;;;;;5011668;28;20196;-65
2021/09/15 06:55:05;;;;;;;32.40;29.33;;;19.60;99.90;;;;;;5012285;28;20210;-64
2021/09/15 06:57:32;;;;;;;25.77;22.93;;;19.70;99.90;;;;;;5034787;28;20257;-65
2021/09/15 06:59:57;;;;;;;22.90;20.53;;;19.60;99.90;;;;;;5034762;28;20223;-65
2021/09/15 07:02:25;;;;;;;22.93;20.50;;;19.70;99.90;;;;;;5017236;28;20202;-66
2021/09/15 07:04:51;;;;;;;25.57;23.47;;;19.60;99.90;;;;;;5015822;28;20614;-65
2021/09/15 07:07:16;;;;;;;31.90;29.40;;;19.80;99.90;;;;;;5031300;28;20552;-65
2021/09/15 07:09:42;;;;;;;36.23;33.47;;;19.80;99.90;;;;;;5034746;28;20187;-65
2021/09/15 07:12:08;;;;;;;20.80;19.17;;;19.90;99.90;;;;;;5020435;28;20195;-64
2021/09/15 07:14:34;;;;;;;47.93;44.43;;;20.00;99.90;;;;;;5015367;28;20180;-65
2021/09/15 07:16:59;;;;;;;20.57;18.43;;;20.10;99.90;;;;;;5027480;28;20180;-65
2021/09/15 07:19:25;;;;;;;20.73;18.67;;;20.10;99.90;;;;;;5024873;28;20208;-65
2021/09/15 07:21:50;;;;;;;18.13;16.47;;;20.20;99.90;;;;;;5015035;28;20711;-64
2021/09/15 07:24:17;;;;;;;17.37;15.63;;;20.30;99.90;;;;;;5022289;28;20179;-65
2021/09/15 07:26:43;;;;;;;18.83;17.03;;;20.40;99.90;;;;;;5034826;28;20172;-64
2021/09/15 07:29:09;;;;;;;20.90;15.87;;;20.50;99.90;;;;;;5029326;28;20756;-63
2021/09/15 07:31:37;;;;;;;17.07;13.70;;;20.60;99.90;;;;;;5034358;28;20199;-64
2021/09/15 07:34:04;;;;;;;19.43;14.57;;;20.80;99.90;;;;;;5032150;28;20201;-65
2021/09/15 07:36:29;;;;;;;15.70;14.17;;;20.90;99.90;;;;;;5034842;28;20176;-65
2021/09/15 07:38:55;;;;;;;15.47;14.03;;;21.10;99.90;;;;;;5026749;28;20180;-64
2021/09/15 07:41:21;;;;;;;13.77;12.57;;;21.20;99.90;;;;;;5014254;28;20679;-65
2021/09/15 07:43:46;;;;;;;13.77;12.37;;;21.40;99.90;;;;;;5020245;28;20185;-65
2021/09/15 07:46:13;;;;;;;13.17;11.97;;;21.50;99.90;;;;;;5034497;28;20217;-65
2021/09/15 07:48:39;;;;;;;13.70;12.33;;;21.80;99.90;;;;;;5016427;28;20172;-65
2021/09/15 07:51:04;;;;;;;14.88;10.93;;;21.90;99.90;;;;;;5014182;28;20669;-65
2021/09/15 07:53:30;;;;;;;11.67;10.57;;;22.00;99.90;;;;;;5030201;28;20198;-64
2021/09/15 07:55:55;;;;;;;11.88;10.68;;;22.10;99.90;;;;;;5031736;28;20199;-64
2021/09/15 07:58:21;;;;;;;11.95;10.85;;;22.10;99.90;;;;;;5014465;28;20638;-65
2021/09/15 08:00:47;;;;;;;18.20;10.73;;;22.10;99.90;;;;;;5014086;28;20581;-65
2021/09/15 08:03:13;;;;;;;12.77;11.50;;;22.20;99.90;;;;;;5033959;28;20194;-65
2021/09/15 08:05:39;;;;;;;12.23;11.18;;;22.20;99.90;;;;;;5034090;28;20310;-65
2021/09/15 08:08:05;;;;;;;11.18;10.07;;;22.20;99.90;;;;;;5014572;28;20255;-65
2021/09/15 08:10:30;;;;;;;11.23;10.18;;;22.30;99.90;;;;;;5013862;28;20282;-65
2021/09/15 08:12:56;;;;;;;11.27;10.25;;;22.20;99.90;;;;;;5030836;28;20179;-64
2021/09/15 08:15:22;;;;;;;11.73;10.43;;;22.20;99.90;;;;;;5028036;28;20188;-64
2021/09/15 08:17:50;;;;;;;11.43;9.88;;;22.00;99.90;;;;;;5014150;28;20630;-65
2021/09/15 08:20:16;;;;;;;13.00;10.55;;;22.00;99.90;;;;;;5017342;28;20226;-65
2021/09/15 08:22:42;;;;;;;11.20;9.37;;;21.80;99.90;;;;;;5033799;28;20546;-65
2021/09/15 08:25:08;;;;;;;10.83;9.03;;;21.70;99.90;;;;;;5031154;28;20181;-65
2021/09/15 08:27:34;;;;;;;10.60;9.13;;;21.60;99.90;;;;;;5013050;28;20258;-65
2021/09/15 08:29:59;;;;;;;8.90;7.90;;;21.60;99.90;;;;;;5015171;28;20203;-64
2021/09/15 08:32:25;;;;;;;9.57;8.77;;;21.60;99.90;;;;;;5033408;28;20180;-65
2021/09/15 08:34:51;;;;;;;11.50;9.90;;;21.50;99.90;;;;;;5032678;28;20189;-66
2021/09/15 08:37:16;;;;;;;10.90;9.40;;;21.40;99.90;;;;;;5014277;28;20184;-67
2021/09/15 08:39:42;;;;;;;10.87;9.40;;;21.40;99.90;;;;;;5013142;28;20188;-66
2021/09/15 08:42:08;;;;;;;10.23;9.27;;;21.40;99.90;;;;;;5030192;28;20172;-67
2021/09/15 08:44:33;;;;;;;11.03;9.47;;;21.50;99.90;;;;;;5019686;28;20661;-67
2021/09/15 08:47:00;;;;;;;10.17;9.27;;;21.50;99.90;;;;;;5013469;28;20173;-66
2021/09/15 08:49:29;;;;;;;9.97;8.77;;;21.60;99.90;;;;;;5026131;28;20171;-66
2021/09/15 08:51:55;;;;;;;9.95;8.52;;;21.80;99.90;;;;;;5032917;28;20628;-66
2021/09/15 08:54:21;;;;;;;10.93;8.40;;;21.80;99.90;;;;;;5020796;28;20271;-66
2021/09/15 08:56:46;;;;;;;8.68;7.90;;;21.80;99.90;;;;;;5013184;28;20184;-67
2021/09/15 08:59:12;;;;;;;8.60;7.43;;;21.90;99.90;;;;;;5022890;28;20518;-66
2021/09/15 09:01:39;;;;;;;9.30;8.52;;;21.90;99.90;;;;;;5032319;28;20215;-66
2021/09/15 09:04:05;;;;;;;10.77;8.37;;;21.90;99.90;;;;;;5027954;28;20175;-67
2021/09/15 09:06:33;;;;;;;9.55;7.82;;;22.00;99.90;;;;;;5032947;28;20254;-67
2021/09/15 09:09:00;;;;;;;11.43;8.23;;;22.00;99.90;;;;;;5031162;28;20183;-66
2021/09/15 09:11:28;;;;;;;8.63;7.70;;;22.10;99.90;;;;;;5029810;28;20299;-67
2021/09/15 09:13:55;;;;;;;9.07;8.15;;;22.30;99.90;;;;;;5012807;28;20184;-65
2021/09/15 09:16:36;;;;;;;8.80;7.97;;;22.30;99.90;;;;;;5012423;28;20184;-67
2021/09/15 09:19:04;;;;;;;8.93;8.13;;;22.20;99.90;;;;;;5031463;28;20187;-67
2021/09/15 09:21:32;;;;;;;8.38;7.63;;;22.30;99.90;;;;;;5030119;28;20211;-67
2021/09/15 09:24:03;;;;;;;7.90;7.20;;;22.40;99.90;;;;;;5012644;28;20195;-66
2021/09/15 09:26:53;;;;;;;9.13;8.35;;;22.30;99.90;;;;;;5013663;28;20179;-67
2021/09/15 09:29:24;;;;;;;9.70;8.88;;;22.20;99.90;;;;;;5032067;28;20176;-66
2021/09/15 09:32:08;;;;;;;9.63;8.57;;;21.90;99.90;;;;;;5028580;28;20199;-67
2021/09/15 09:34:48;;;;;;;9.83;8.83;;;21.70;99.90;;;;;;5011827;28;20207;-67
2021/09/15 09:37:17;;;;;;;9.97;9.07;;;21.60;99.90;;;;;;5018437;28;20257;-67
2021/09/15 09:39:48;;;;;;;10.13;9.20;;;21.60;99.90;;;;;;5030229;28;20195;-66
2021/09/15 09:42:23;;;;;;;14.27;8.60;;;21.40;99.90;;;;;;5032109;28;20177;-66
2021/09/15 09:45:04;;;;;;;9.57;8.73;;;21.30;99.90;;;;;;5027541;28;20180;-66
2021/09/15 09:47:30;;;;;;;10.87;9.77;;;21.20;99.90;;;;;;5012309;28;20199;-67
2021/09/15 09:50:07;;;;;;;10.70;9.77;;;21.10;99.90;;;;;;5011604;28;20270;-66
2021/09/15 09:53:00;;;;;;;10.67;9.83;;;21.10;99.90;;;;;;5023323;28;20668;-66
2021/09/15 09:55:36;;;;;;;11.37;9.67;;;21.10;99.90;;;;;;5020459;28;20195;-65
2021/09/15 09:58:04;;;;;;;12.97;10.23;;;21.10;99.90;;;;;;5009823;28;20187;-67
2021/09/15 10:00:31;;;;;;;12.80;11.43;;;21.30;99.90;;;;;;5012762;28;20204;-69
2021/09/15 10:02:58;;;;;;;10.85;9.95;;;21.50;99.90;;;;;;5012263;28;20176;-66
2021/09/15 10:05:24;;;;;;;11.15;10.07;;;21.60;99.90;;;;;;5021473;28;20226;-66
2021/09/15 10:07:51;;;;;;;8.80;8.10;;;21.60;99.90;;;;;;5029707;28;20633;-65
2021/09/15 10:10:19;;;;;;;10.35;8.30;;;21.60;99.90;;;;;;5011738;28;20208;-67
2021/09/15 10:12:46;;;;;;;10.27;8.43;;;21.60;99.90;;;;;;5011034;28;20176;-66
2021/09/15 10:15:13;;;;;;;8.57;7.87;;;21.40;99.90;;;;;;5031606;28;20209;-67
2021/09/15 10:17:47;;;;;;;9.00;8.10;;;21.40;99.90;;;;;;5031616;28;20588;-67
2021/09/15 10:20:15;;;;;;;9.57;8.67;;;21.40;99.90;;;;;;5004676;28;20219;-65
2021/09/15 10:22:46;;;;;;;10.07;8.80;;;21.40;99.90;;;;;;5011963;28;20180;-66
2021/09/15 10:25:11;;;;;;;9.70;8.97;;;21.40;99.90;;;;;;5029399;28;20175;-67
2021/09/15 10:28:01;;;;;;;9.73;8.80;;;21.30;99.90;;;;;;5031464;28;20186;-66
2021/09/15 10:30:51;;;;;;;8.90;8.00;;;21.30;99.90;;;;;;5030799;28;20883;-66
2021/09/15 10:33:46;;;;;;;8.73;7.93;;;21.30;99.90;;;;;;5030694;28;20202;-65
2021/09/15 10:36:12;;;;;;;7.90;7.20;;;21.30;99.90;;;;;;5007992;28;20325;-67
2021/09/15 10:38:57;;;;;;;8.97;8.07;;;21.30;99.90;;;;;;5031497;28;20258;-67
2021/09/15 10:41:42;;;;;;;11.83;8.60;;;21.40;99.90;;;;;;5025608;28;20569;-65
2021/09/15 10:44:13;;;;;;;9.13;8.20;;;21.20;99.90;;;;;;5012144;28;20168;-67
2021/09/15 10:46:40;;;;;;;10.60;9.13;;;21.10;99.90;;;;;;5018613;28;20198;-67
2021/09/15 10:49:24;;;;;;;10.77;9.77;;;21.00;99.90;;;;;;5031179;28;20171;-67
2021/09/15 10:52:08;;;;;;;14.80;12.70;;;20.70;99.90;;;;;;5023529;28;20204;-67
2021/09/15 10:54:57;;;;;;;18.97;14.40;;;20.50;99.90;;;;;;5011686;28;20184;-68
2021/09/15 10:57:36;;;;;;;19.27;17.03;;;20.30;99.90;;;;;;5012739;28;20311;-68
2021/09/15 11:00:15;;;;;;;34.53;27.67;;;20.10;99.90;;;;;;5011047;28;20566;-65
2021/09/15 11:02:42;;;;;;;121.13;95.83;;;19.90;99.90;;;;;;5024672;28;20187;-68
2021/09/15 11:05:27;;;;;;;45.23;41.40;;;19.80;99.90;;;;;;5031225;28;20179;-66
2021/09/15 11:07:57;;;;;;;163.80;157.13;;;19.60;99.90;;;;;;5021704;22;20180;-66
2021/09/15 11:10:34;;;;;;;11.37;10.87;;;19.60;99.90;;;;;;4973660;28;20197;-66
2021/09/15 11:13:01;;;;;;;9.27;8.87;;;19.50;99.90;;;;;;5006733;28;20245;-66
2021/09/15 11:15:48;;;;;;;27.30;26.20;;;19.40;99.90;;;;;;4992645;28;20556;-66
2021/09/15 11:18:19;;;;;;;7.87;7.57;;;19.40;99.90;;;;;;4971640;28;20248;-66
2021/09/15 11:20:55;;;;;;;16.63;15.93;;;19.50;99.90;;;;;;5008023;28;20211;-65
2021/09/15 11:23:24;;;;;;;19.40;18.60;;;19.30;99.90;;;;;;5010406;28;20168;-67
2021/09/15 11:25:50;;;;;;;17.30;16.60;;;19.40;99.90;;;;;;5011219;28;20187;-65
2021/09/15 11:28:18;;;;;;;24.90;23.90;;;19.40;99.90;;;;;;5011356;28;20211;-64
2021/09/15 11:30:52;;;;;;;5.60;5.40;;;19.50;99.90;;;;;;5010292;28;20191;-66
2021/09/15 11:33:28;;;;;;;7.17;6.87;;;19.50;99.90;;;;;;5011141;28;20263;-65
2021/09/15 11:35:59;;;;;;;7.30;7.00;;;19.60;99.90;;;;;;4971074;28;20184;-65
2021/09/15 11:38:30;;;;;;;15.97;15.27;;;19.70;99.90;;;;;;4972204;28;20690;-68
2021/09/15 11:41:11;;;;;;;36.80;35.33;;;19.80;99.90;;;;;;4992060;28;20216;-66
2021/09/15 11:43:39;;;;;;;16.83;16.13;;;20.00;99.90;;;;;;4995146;28;20181;-66
2021/09/15 11:46:05;;;;;;;15.47;14.87;;;19.90;99.90;;;;;;5014528;28;20643;-67
2021/09/15 11:48:33;;;;;;;6.67;6.37;;;19.80;99.90;;;;;;5014544;28;20326;-68
2021/09/15 11:51:12;;;;;;;9.17;8.80;;;20.10;99.90;;;;;;5013492;28;20271;-67
2021/09/15 11:53:38;;;;;;;49.13;47.07;;;20.30;99.90;;;;;;4995519;28;20185;-66
2021/09/15 11:56:04;;;;;;;90.27;86.67;;;20.50;99.90;;;;;;4994691;28;20211;-65
2021/09/15 11:58:30;;;;;;;8.70;8.40;;;20.80;99.90;;;;;;5011634;28;20279;-66
2021/09/15 12:00:56;;;;;;;7.30;6.80;;;20.90;99.90;;;;;;5013888;28;20295;-66
2021/09/15 12:03:27;;;;;;;13.53;12.93;;;20.70;99.90;;;;;;4998514;28;20188;-69
2021/09/15 12:05:54;;;;;;;34.90;33.33;;;21.00;99.90;;;;;;4994629;28;20204;-66
2021/09/15 12:08:20;;;;;;;34.20;32.80;;;21.10;99.90;;;;;;5007312;28;20243;-68
2021/09/15 12:10:52;;;;;;;5.73;5.43;;;21.10;99.90;;;;;;4996366;28;20269;-65
2021/09/15 12:13:18;;;;;;;7.33;6.80;;;21.10;99.90;;;;;;5003631;28;20176;-68
2021/09/15 12:15:52;;;;;;;10.60;10.20;;;21.30;99.90;;;;;;4994386;28;20284;-67
2021/09/15 12:18:20;;;;;;;6.40;6.10;;;21.30;99.90;;;;;;5007133;28;20211;-66
2021/09/15 12:20:51;;;;;;;4.70;4.50;;;21.50;99.90;;;;;;5013556;28;20242;-66
2021/09/15 12:23:30;;;;;;;5.77;5.57;;;21.70;99.90;;;;;;5001143;28;20189;-67
2021/09/15 12:25:59;;;;;;;6.20;6.00;;;22.00;99.90;;;;;;4994229;28;20631;-66
2021/09/15 12:28:27;;;;;;;12.27;11.57;;;22.40;99.90;;;;;;5007033;28;20196;-66
2021/09/15 12:30:54;;;;;;;7.05;6.60;;;22.30;99.90;;;;;;5003608;28;20189;-66
2021/09/15 12:33:25;;;;;;;4.25;4.05;;;22.30;99.90;;;;;;4994086;28;20196;-67
2021/09/15 12:36:07;;;;;;;3.95;3.78;;;22.30;99.90;;;;;;5001893;28;20264;-68
2021/09/15 12:38:47;;;;;;;11.50;5.30;;;22.70;99.90;;;;;;5013667;28;20619;-67
2021/09/15 12:41:12;;;;;;;4.90;4.70;;;23.00;99.90;;;;;;5001633;28;20268;-67